Main page
METAR-TAF:

METAR-TAF

Airports :

Roman Tmetuchl International Airport

Koror, Babeldaob, Palau

latitude: 07-22N, longitude: 134-32E, elevation: 54 m

Current weather observation

The report was made 33 minutes ago, at 22:54 UTC
Wind 9 kt from the East with gusts up to 15 kt
Temperature 28°C
Humidity 79%
Pressure 1010 hPa
Visibility: 22.5 km
Few clouds at a height of 900 ft
Scattered clouds at a height of 1600 ft
Broken clouds at a height of 12000 ft
Broken clouds at a height of 30000 ft

METAR: PTRO 212254Z 08009G15KT 14SM FEW009 SCT016 BKN120 BKN300 28/24 A2982

Time: 08:27 (23:27 UTC)

Forecast

The report was made 6 hours and 0 minutes ago, at 17:27 UTC
Forecast valid from 21 at 18 UTC to 22 at 18 UTC
Wind 9 kt from the East
Visibility: 10 km
Scattered clouds at a height of 1600 ft
Broken clouds at a height of 12000 ft
showers in vicinity

TAF: PTRO 211727Z 2118/2218 08009KT P6SM VCSH SCT016 BKN120

Weather observations and forecasts of more than 4000 airports (METAR and TAF reports).

The available stations are represented by yellow and red dots on the map.

Hover mouse over dot to see the name of the station.

Then click to see weather observations and forecasts.

To change the map : click on the green buttons with a black cross to zoom in, on the green button with a dash to zoom out, or on the green arrows for adjacent maps.


METAR-TAF: